Time;durP1;ratioP1;P1;durP2;ratioP2;P2;SDS_P1;SDS_P2;PMS_P1;PMS_P2;Temp;Humidity;BMP_temperature;BMP_pressure;BME280_temperature;BME280_humidity;BME280_pressure;Samples;Min_cycle;Max_cycle;Signal;HPM_P1;HPM_P2
2023/03/30 00:02:12;;;;;;;85.10;80.18;;;0.60;99.90;;;;;;5267801;28;20028;-68
2023/03/30 00:04:43;;;;;;;80.03;75.10;;;0.70;99.90;;;;;;5267862;28;20064;-68
2023/03/30 00:07:14;;;;;;;90.88;85.38;;;0.50;99.90;;;;;;5268026;28;20043;-68
2023/03/30 00:09:45;;;;;;;94.55;88.85;;;0.50;99.90;;;;;;5267964;28;20008;-68
2023/03/30 00:12:19;;;;;;;85.55;80.10;;;0.40;99.90;;;;;;5267850;28;20123;-68
2023/03/30 00:14:50;;;;;;;91.68;85.97;;;0.40;99.90;;;;;;5270269;28;20019;-68
2023/03/30 00:17:21;;;;;;;88.20;82.50;;;0.50;99.90;;;;;;5276702;28;20035;-68
2023/03/30 00:19:51;;;;;;;93.68;87.88;;;0.50;99.90;;;;;;5267772;28;20430;-68
2023/03/30 00:22:22;;;;;;;82.88;77.57;;;0.10;99.90;;;;;;5267757;28;20106;-68
2023/03/30 00:24:53;;;;;;;121.43;114.32;;;0.30;99.90;;;;;;5267659;28;20024;-68
2023/03/30 00:27:24;;;;;;;97.13;91.25;;;0.50;99.90;;;;;;5267903;28;20599;-67
2023/03/30 00:29:55;;;;;;;85.38;80.00;;;0.30;99.90;;;;;;5267854;28;20024;-68
2023/03/30 00:32:26;;;;;;;87.18;81.65;;;0.30;99.90;;;;;;5267439;28;20055;-68
2023/03/30 00:34:57;;;;;;;290.95;274.70;;;0.40;99.90;;;;;;5267509;28;20028;-68
2023/03/30 00:37:28;;;;;;;90.53;85.00;;;0.20;99.90;;;;;;5267577;28;20079;-68
2023/03/30 00:39:59;;;;;;;107.65;100.90;;;0.10;99.90;;;;;;5267636;28;20365;-67
2023/03/30 00:42:30;;;;;;;83.97;78.78;;;0.10;99.90;;;;;;5267571;28;20607;-67
2023/03/30 00:45:25;;;;;;;89.70;84.05;;;0.30;99.90;;;;;;5267362;28;20039;-68
2023/03/30 00:48:05;;;;;;;101.82;95.75;;;0.30;99.90;;;;;;5267542;28;20028;-68
2023/03/30 00:50:42;;;;;;;87.13;81.47;;;0.10;99.90;;;;;;5267453;28;20414;-68
2023/03/30 00:53:26;;;;;;;83.55;78.35;;;0.00;99.90;;;;;;5267564;28;20036;-67
2023/03/30 00:55:58;;;;;;;86.05;80.38;;;0.40;99.90;;;;;;5267757;28;20024;-68
2023/03/30 00:58:30;;;;;;;80.13;75.28;;;0.00;99.90;;;;;;5267478;28;20027;-67
2023/03/30 01:01:05;;;;;;;97.97;92.10;;;0.10;99.90;;;;;;5267443;28;20379;-67
2023/03/30 01:03:44;;;;;;;80.25;74.97;;;0.10;99.90;;;;;;5267454;28;20474;-67
2023/03/30 01:06:20;;;;;;;201.07;189.70;;;-0.10;99.90;;;;;;5267210;28;20101;-67
2023/03/30 01:08:53;;;;;;;78.65;73.32;;;0.40;99.90;;;;;;5267336;28;20031;-68
2023/03/30 01:11:25;;;;;;;78.97;73.82;;;0.20;99.90;;;;;;5269434;28;20034;-68
2023/03/30 01:14:03;;;;;;;85.88;79.82;;;0.00;99.90;;;;;;5271006;28;20077;-67
2023/03/30 01:17:01;;;;;;;272.15;255.63;;;0.20;99.90;;;;;;5271015;28;20055;-68
2023/03/30 01:19:50;;;;;;;78.80;72.88;;;-0.10;99.90;;;;;;5271002;28;20035;-68
2023/03/30 01:23:00;;;;;;;75.93;70.57;;;-0.20;99.90;;;;;;5270959;28;20384;-68
2023/03/30 01:25:55;;;;;;;80.00;74.00;;;-0.40;99.90;;;;;;5270668;28;20035;-68
2023/03/30 01:28:41;;;;;;;95.13;88.50;;;0.00;99.90;;;;;;5270845;28;20657;-67
2023/03/30 01:31:19;;;;;;;89.18;82.47;;;0.00;99.90;;;;;;5270377;28;20044;-68
2023/03/30 01:33:59;;;;;;;90.40;83.72;;;-0.10;99.90;;;;;;5270530;28;20031;-68
2023/03/30 01:36:59;;;;;;;71.05;65.72;;;-0.10;99.90;;;;;;5270671;28;20028;-67
2023/03/30 01:39:33;;;;;;;89.53;83.22;;;0.00;99.90;;;;;;5270662;28;20081;-66
2023/03/30 01:42:23;;;;;;;304.67;286.75;;;-0.10;99.90;;;;;;5270484;28;20028;-67
2023/03/30 01:45:10;;;;;;;83.95;77.43;;;-0.50;99.90;;;;;;5270186;28;20040;-68
2023/03/30 01:47:50;;;;;;;85.00;78.90;;;-0.10;99.90;;;;;;5270475;28;20832;-67
2023/03/30 01:50:32;;;;;;;82.53;76.60;;;-0.30;99.90;;;;;;5270285;28;20028;-67
2023/03/30 01:53:06;;;;;;;80.63;74.65;;;-0.40;99.90;;;;;;5270215;28;20445;-68
2023/03/30 01:55:48;;;;;;;263.60;248.55;;;-0.30;99.90;;;;;;5270147;28;20031;-68
2023/03/30 01:59:05;;;;;;;96.07;88.60;;;-0.50;99.90;;;;;;5270324;28;20024;-67
2023/03/30 02:01:40;;;;;;;193.43;181.75;;;-0.60;99.90;;;;;;5255860;28;20492;-68
2023/03/30 02:04:11;;;;;;;89.40;82.75;;;-0.60;99.90;;;;;;5270047;28;20652;-67
2023/03/30 02:06:47;;;;;;;81.65;75.18;;;-0.40;99.90;;;;;;5270263;28;20030;-67
2023/03/30 02:09:22;;;;;;;329.55;310.33;;;-0.40;99.90;;;;;;5270226;28;20016;-68
2023/03/30 02:11:54;;;;;;;97.43;89.50;;;-0.40;99.90;;;;;;5270313;28;20031;-67
2023/03/30 02:14:28;;;;;;;99.50;91.95;;;-0.20;99.90;;;;;;5270213;28;20058;-67
2023/03/30 02:17:21;;;;;;;95.35;87.28;;;-0.40;99.90;;;;;;5269892;28;20024;-67
2023/03/30 02:19:53;;;;;;;102.45;94.15;;;-0.40;99.90;;;;;;5269870;28;20410;-68
2023/03/30 02:22:26;;;;;;;96.88;89.22;;;-0.60;99.90;;;;;;5269122;28;20073;-67
2023/03/30 02:24:57;;;;;;;94.88;86.43;;;-0.50;99.90;;;;;;5269634;28;20475;-67
2023/03/30 02:27:28;;;;;;;111.88;101.68;;;-0.40;99.90;;;;;;5269638;28;20026;-68
2023/03/30 02:29:59;;;;;;;98.38;88.75;;;-0.40;99.90;;;;;;5269636;28;20016;-68
2023/03/30 02:32:41;;;;;;;114.30;104.03;;;-0.50;99.90;;;;;;5269196;28;20122;-68
2023/03/30 02:35:42;;;;;;;322.45;302.58;;;-0.80;99.90;;;;;;5269170;28;20040;-68
2023/03/30 02:38:41;;;;;;;102.53;94.28;;;-0.50;99.90;;;;;;5235298;28;20475;-68
2023/03/30 02:41:21;;;;;;;366.73;345.45;;;-0.60;99.90;;;;;;5269269;28;20043;-68
2023/03/30 02:44:09;;;;;;;85.68;78.97;;;-0.70;99.90;;;;;;5269205;28;20356;-67
2023/03/30 02:47:01;;;;;;;88.80;81.55;;;-0.80;99.90;;;;;;5269082;28;20036;-68
2023/03/30 02:49:50;;;;;;;94.03;86.45;;;-0.70;99.90;;;;;;5269218;28;20102;-68
2023/03/30 02:52:40;;;;;;;92.72;85.63;;;-0.60;99.90;;;;;;5269167;28;20434;-68
2023/03/30 02:55:22;;;;;;;358.35;337.77;;;-0.60;99.90;;;;;;5268911;28;20365;-68
2023/03/30 02:58:02;;;;;;;99.72;92.53;;;-0.70;99.90;;;;;;5268911;28;20039;-68
2023/03/30 03:00:51;;;;;;;122.25;114.47;;;-0.90;99.90;;;;;;5268828;28;20103;-68
2023/03/30 03:03:35;;;;;;;88.13;81.72;;;-0.70;99.90;;;;;;5268778;28;20078;-68
2023/03/30 03:06:08;;;;;;;88.93;82.57;;;-0.60;99.90;;;;;;5268731;28;20047;-68
2023/03/30 03:08:42;;;;;;;82.05;76.40;;;-0.80;99.90;;;;;;5268678;28;20012;-68
2023/03/30 03:11:13;;;;;;;91.70;85.35;;;-0.80;99.90;;;;;;5268681;28;20043;-67
2023/03/30 03:13:45;;;;;;;88.65;82.38;;;-1.00;99.90;;;;;;5268393;28;20024;-68
2023/03/30 03:16:16;;;;;;;137.20;128.68;;;-0.80;99.90;;;;;;5250475;28;20028;-67
2023/03/30 03:18:48;;;;;;;88.47;82.35;;;-0.80;99.90;;;;;;5268446;28;20102;-67
2023/03/30 03:21:19;;;;;;;319.35;300.98;;;-1.00;99.90;;;;;;5268544;28;20118;-67
2023/03/30 03:23:50;;;;;;;91.10;84.75;;;-1.00;99.90;;;;;;5268479;28;20050;-67
2023/03/30 03:26:21;;;;;;;78.60;72.90;;;-1.00;99.90;;;;;;5268444;28;20100;-68
2023/03/30 03:28:52;;;;;;;85.10;79.03;;;-1.00;99.90;;;;;;5268565;28;20047;-68
2023/03/30 03:31:25;;;;;;;79.22;73.45;;;-0.90;99.90;;;;;;5268062;28;20062;-67
2023/03/30 03:33:56;;;;;;;99.85;92.63;;;-1.00;99.90;;;;;;5268133;28;20040;-67
2023/03/30 03:36:27;;;;;;;108.70;100.97;;;-1.00;99.90;;;;;;5268322;28;20028;-67
2023/03/30 03:38:58;;;;;;;93.10;86.10;;;-1.10;99.90;;;;;;5279686;28;20379;-67
2023/03/30 03:41:29;;;;;;;313.30;294.75;;;-1.20;99.90;;;;;;5268066;28;20024;-67
2023/03/30 03:44:00;;;;;;;109.13;101.30;;;-1.10;99.90;;;;;;5268083;28;20024;-67
2023/03/30 03:46:31;;;;;;;99.93;92.63;;;-1.20;99.90;;;;;;5268104;28;20071;-68
2023/03/30 03:49:01;;;;;;;99.07;91.57;;;-1.30;99.90;;;;;;5267977;28;20115;-68
2023/03/30 03:51:32;;;;;;;95.65;88.25;;;-1.10;99.90;;;;;;5267908;28;20024;-67
2023/03/30 03:54:03;;;;;;;297.02;280.23;;;-0.90;99.90;;;;;;5267798;28;20028;-68
2023/03/30 03:56:34;;;;;;;100.55;92.90;;;-1.40;99.90;;;;;;5267942;28;20401;-68
2023/03/30 03:59:05;;;;;;;94.25;85.97;;;-1.20;99.90;;;;;;5267938;28;20019;-67
2023/03/30 04:01:36;;;;;;;116.97;106.22;;;-0.90;99.90;;;;;;5267799;28;20774;-67
2023/03/30 04:04:07;;;;;;;85.72;78.85;;;-1.10;99.90;;;;;;5267710;28;20035;-67
2023/03/30 04:06:37;;;;;;;223.05;209.70;;;-1.10;99.90;;;;;;5267723;28;20035;-67
2023/03/30 04:09:08;;;;;;;94.22;86.97;;;-1.10;99.90;;;;;;5267724;28;20028;-67
2023/03/30 04:11:40;;;;;;;87.00;80.32;;;-1.30;99.90;;;;;;5267810;28;20032;-68
2023/03/30 04:14:11;;;;;;;108.43;100.45;;;-1.20;99.90;;;;;;5267778;28;20371;-67
2023/03/30 04:16:44;;;;;;;109.95;101.03;;;-1.00;99.90;;;;;;5267755;28;20054;-67
2023/03/30 04:19:15;;;;;;;110.65;101.85;;;-1.10;99.90;;;;;;5267500;28;20024;-68
2023/03/30 04:21:54;;;;;;;101.93;93.45;;;-1.20;99.90;;;;;;5267645;28;20040;-67
2023/03/30 04:24:34;;;;;;;228.60;214.93;;;-0.90;99.90;;;;;;5267290;28;20111;-67
2023/03/30 04:27:15;;;;;;;99.20;90.75;;;-1.20;99.90;;;;;;5266616;28;20048;-67
2023/03/30 04:29:50;;;;;;;85.72;78.40;;;-1.10;99.90;;;;;;5267683;28;20593;-67
2023/03/30 04:32:20;;;;;;;93.63;86.30;;;-1.20;99.90;;;;;;5267343;28;20145;-67
2023/03/30 04:34:53;;;;;;;154.68;145.35;;;-1.10;99.90;;;;;;5267634;28;20472;-67
2023/03/30 04:37:29;;;;;;;84.32;77.65;;;-1.20;99.90;;;;;;5267530;28;20031;-67
2023/03/30 04:40:01;;;;;;;87.20;80.15;;;-0.80;99.90;;;;;;5267813;28;20016;-67
2023/03/30 04:42:36;;;;;;;126.95;118.32;;;-0.90;99.90;;;;;;5267681;28;20032;-68
2023/03/30 04:45:09;;;;;;;90.40;82.70;;;-0.60;99.90;;;;;;5267728;28;20109;-68
2023/03/30 04:47:39;;;;;;;102.68;93.97;;;-0.80;99.90;;;;;;5271668;28;20028;-67
2023/03/30 04:50:10;;;;;;;100.13;91.55;;;-0.60;99.90;;;;;;5271554;28;20020;-67
2023/03/30 04:52:41;;;;;;;96.90;88.78;;;-1.10;99.90;;;;;;5271484;28;20085;-68
2023/03/30 04:55:12;;;;;;;99.50;90.97;;;-0.30;99.90;;;;;;5271580;28;20051;-69
2023/03/30 04:57:43;;;;;;;109.30;100.03;;;-0.40;99.90;;;;;;5271474;28;20061;-68
2023/03/30 05:00:14;;;;;;;109.13;99.47;;;-0.60;99.90;;;;;;5271365;28;20024;-68
2023/03/30 05:02:45;;;;;;;101.80;93.40;;;-0.30;99.90;;;;;;5272791;28;20062;-67
2023/03/30 05:05:16;;;;;;;100.15;91.78;;;-0.30;99.90;;;;;;5278591;28;20120;-67
2023/03/30 05:07:47;;;;;;;98.88;91.38;;;-0.30;99.90;;;;;;5292087;28;20020;-68
2023/03/30 05:10:18;;;;;;;98.18;90.57;;;0.10;99.90;;;;;;5292185;28;20414;-68
2023/03/30 05:12:53;;;;;;;103.55;95.32;;;0.30;99.90;;;;;;5291977;28;20023;-67
2023/03/30 05:15:24;;;;;;;111.90;103.40;;;0.40;99.90;;;;;;5292115;28;20031;-68
2023/03/30 05:17:56;;;;;;;107.00;99.03;;;0.50;99.90;;;;;;5291997;28;20069;-67
2023/03/30 05:20:27;;;;;;;106.75;99.05;;;0.70;99.90;;;;;;5291932;28;20041;-67
2023/03/30 05:22:58;;;;;;;103.95;96.25;;;0.60;99.90;;;;;;5291925;28;20037;-68
2023/03/30 05:25:29;;;;;;;116.43;108.32;;;0.90;99.90;;;;;;5291720;28;20043;-67
2023/03/30 05:28:00;;;;;;;124.57;115.70;;;1.00;99.90;;;;;;5291814;28;20046;-68
2023/03/30 05:30:31;;;;;;;120.43;112.32;;;1.20;99.90;;;;;;5291706;28;20035;-68
2023/03/30 05:33:02;;;;;;;121.43;113.30;;;1.40;99.90;;;;;;5291447;28;20575;-68
2023/03/30 05:35:32;;;;;;;131.30;122.32;;;1.60;99.90;;;;;;5291603;28;20020;-69
2023/03/30 05:38:06;;;;;;;112.25;104.60;;;1.30;99.90;;;;;;5291721;28;20027;-69
2023/03/30 05:40:36;;;;;;;117.60;109.47;;;1.60;99.90;;;;;;5291628;28;20036;-68
2023/03/30 05:43:07;;;;;;;119.97;112.10;;;1.70;99.90;;;;;;5291394;28;20027;-67
2023/03/30 05:45:38;;;;;;;124.03;115.72;;;1.70;99.90;;;;;;5291221;28;20471;-67
2023/03/30 05:48:09;;;;;;;103.90;96.57;;;2.20;99.90;;;;;;5291568;28;20036;-67
2023/03/30 05:50:41;;;;;;;117.75;110.03;;;2.20;99.90;;;;;;5291407;28;20055;-67
2023/03/30 05:53:12;;;;;;;123.38;115.03;;;2.30;99.90;;;;;;5291241;28;20035;-68
2023/03/30 05:55:48;;;;;;;112.00;104.57;;;2.80;99.90;;;;;;5291578;28;20026;-68
2023/03/30 05:58:19;;;;;;;96.90;90.05;;;2.40;99.90;;;;;;5289963;28;20059;-67
2023/03/30 06:00:51;;;;;;;91.82;85.22;;;2.90;99.90;;;;;;5291325;28;20108;-67
2023/03/30 06:03:22;;;;;;;92.15;85.70;;;3.30;99.90;;;;;;5291114;28;20047;-68
2023/03/30 06:05:53;;;;;;;82.15;76.43;;;3.60;99.90;;;;;;5291101;28;20504;-68
2023/03/30 06:08:25;;;;;;;96.78;90.20;;;3.60;99.90;;;;;;5291242;28;20057;-67
2023/03/30 06:10:56;;;;;;;88.03;81.63;;;3.60;99.90;;;;;;5291106;28;20042;-67
2023/03/30 06:13:27;;;;;;;86.63;80.70;;;3.90;99.90;;;;;;5291104;28;20375;-67
2023/03/30 06:15:58;;;;;;;95.28;88.50;;;3.90;99.90;;;;;;5290897;28;20035;-67
2023/03/30 06:18:29;;;;;;;83.15;77.32;;;3.80;99.90;;;;;;5290936;28;20023;-67
2023/03/30 06:21:01;;;;;;;79.57;73.75;;;4.30;99.90;;;;;;5290747;28;20037;-67
2023/03/30 06:23:33;;;;;;;77.22;71.65;;;4.30;99.90;;;;;;5290632;28;20020;-68
2023/03/30 06:26:06;;;;;;;78.10;72.28;;;4.20;99.90;;;;;;5290734;28;20038;-68
2023/03/30 06:28:37;;;;;;;82.93;77.20;;;4.20;99.90;;;;;;5290790;27;20016;-67
2023/03/30 06:31:09;;;;;;;83.18;77.32;;;4.80;99.90;;;;;;5290256;28;20058;-66
2023/03/30 06:33:40;;;;;;;88.70;82.88;;;5.20;99.90;;;;;;5290560;28;20031;-66
2023/03/30 06:36:13;;;;;;;99.50;93.20;;;5.70;99.90;;;;;;5290513;28;20101;-68
2023/03/30 06:38:43;;;;;;;92.45;86.32;;;5.70;99.90;;;;;;5290323;28;20026;-66
2023/03/30 06:41:14;;;;;;;94.13;88.35;;;6.30;99.90;;;;;;5290306;28;20023;-66
2023/03/30 06:43:45;;;;;;;94.85;89.03;;;6.80;99.90;;;;;;5290363;28;20060;-67
2023/03/30 06:46:17;;;;;;;87.35;81.80;;;7.00;99.90;;;;;;5290153;28;20039;-68
2023/03/30 06:48:48;;;;;;;79.93;75.15;;;7.20;99.90;;;;;;5290297;28;20027;-68
2023/03/30 06:51:19;;;;;;;79.75;74.97;;;7.50;99.90;;;;;;5290080;28;20030;-67
2023/03/30 06:53:50;;;;;;;75.95;71.45;;;7.40;99.90;;;;;;5290099;28;20036;-68
2023/03/30 06:56:22;;;;;;;72.78;68.50;;;8.00;99.90;;;;;;5289974;28;20027;-68
2023/03/30 06:58:52;;;;;;;73.03;68.57;;;8.00;98.20;;;;;;5290233;28;20034;-67
2023/03/30 07:01:23;;;;;;;72.38;68.30;;;8.20;94.00;;;;;;5289924;28;20374;-67
2023/03/30 07:03:55;;;;;;;72.05;67.85;;;8.30;90.20;;;;;;5289765;28;20483;-67
2023/03/30 07:06:26;;;;;;;68.63;64.85;;;8.70;83.80;;;;;;5289714;28;20036;-67
2023/03/30 07:08:56;;;;;;;63.63;60.03;;;8.60;84.90;;;;;;5289787;28;20028;-67
2023/03/30 07:11:27;;;;;;;73.25;69.35;;;8.40;74.60;;;;;;5289967;28;20095;-67
2023/03/30 07:14:00;;;;;;;71.35;67.43;;;8.70;78.20;;;;;;5289830;28;20043;-68
2023/03/30 07:16:30;;;;;;;67.47;63.78;;;8.70;82.50;;;;;;5289871;28;20019;-68
2023/03/30 07:19:01;;;;;;;69.22;65.50;;;8.60;76.70;;;;;;5289719;28;20077;-68
2023/03/30 07:21:32;;;;;;;72.47;68.28;;;8.80;78.00;;;;;;5289794;28;20028;-67
2023/03/30 07:24:04;;;;;;;70.43;66.53;;;8.60;78.00;;;;;;5289670;28;20027;-68
2023/03/30 07:26:35;;;;;;;68.03;64.13;;;9.10;72.20;;;;;;5289280;28;20090;-67
2023/03/30 07:29:06;;;;;;;62.78;59.28;;;9.10;78.10;;;;;;5289692;28;20350;-67
2023/03/30 07:31:37;;;;;;;67.50;63.58;;;9.20;70.50;;;;;;5289270;28;20059;-68
2023/03/30 07:34:08;;;;;;;61.88;58.45;;;9.30;70.90;;;;;;5289320;28;20081;-69
2023/03/30 07:36:39;;;;;;;59.05;55.75;;;9.60;70.80;;;;;;5289303;28;20015;-68
2023/03/30 07:39:10;;;;;;;69.38;65.47;;;9.30;79.60;;;;;;5289421;28;20028;-69
2023/03/30 07:41:40;;;;;;;60.13;56.72;;;8.80;81.50;;;;;;5289310;28;20023;-68
2023/03/30 07:44:11;;;;;;;69.03;65.05;;;9.00;83.30;;;;;;5289248;28;20050;-68
2023/03/30 07:46:42;;;;;;;69.18;65.22;;;8.90;83.70;;;;;;5289259;28;20035;-68
2023/03/30 07:49:13;;;;;;;65.88;62.20;;;9.00;84.60;;;;;;5282613;28;20103;-68
2023/03/30 07:51:45;;;;;;;63.20;59.55;;;9.30;79.70;;;;;;5272416;28;20437;-68
2023/03/30 07:54:16;;;;;;;68.07;64.05;;;9.20;78.30;;;;;;5268031;28;20026;-68
2023/03/30 07:56:51;;;;;;;66.25;62.55;;;9.30;76.60;;;;;;5267844;28;20047;-69
2023/03/30 07:59:23;;;;;;;62.35;58.72;;;9.40;77.00;;;;;;5267847;28;20031;-68
2023/03/30 08:01:55;;;;;;;59.85;56.35;;;9.40;71.00;;;;;;5267969;28;20472;-69
2023/03/30 08:04:26;;;;;;;59.05;55.65;;;9.50;72.70;;;;;;5267613;28;20028;-68
2023/03/30 08:06:57;;;;;;;58.88;55.58;;;9.50;70.10;;;;;;5267956;28;20536;-68
2023/03/30 08:09:29;;;;;;;59.38;55.97;;;9.30;67.50;;;;;;5267587;28;20024;-68
2023/03/30 08:12:00;;;;;;;62.63;59.15;;;9.60;69.60;;;;;;5267964;28;20022;-69
2023/03/30 08:14:31;;;;;;;59.63;56.38;;;9.50;70.90;;;;;;5267791;28;20119;-69
2023/03/30 08:17:02;;;;;;;55.60;52.63;;;9.70;68.20;;;;;;5267873;28;20174;-68
2023/03/30 08:19:33;;;;;;;57.00;53.80;;;9.40;66.50;;;;;;5267834;28;20020;-67
2023/03/30 08:22:04;;;;;;;52.65;49.75;;;9.60;69.80;;;;;;5271410;28;20024;-68
2023/03/30 08:24:35;;;;;;;52.17;49.30;;;9.30;68.30;;;;;;5272042;28;20024;-70
2023/03/30 08:27:06;;;;;;;54.22;51.22;;;9.60;68.10;;;;;;5272505;28;20387;-68
2023/03/30 08:29:37;;;;;;;50.28;47.53;;;9.60;71.70;;;;;;5272141;28;20024;-67
2023/03/30 08:32:07;;;;;;;51.92;49.00;;;9.60;68.30;;;;;;5271693;28;20058;-67
2023/03/30 08:34:38;;;;;;;52.33;49.38;;;9.80;70.90;;;;;;5271831;28;20036;-68
2023/03/30 08:37:10;;;;;;;56.05;52.95;;;10.10;73.70;;;;;;5271851;28;20518;-68
2023/03/30 08:39:42;;;;;;;52.35;49.35;;;10.30;67.30;;;;;;5271920;28;20083;-68
2023/03/30 08:42:26;;;;;;;50.83;47.95;;;9.90;67.00;;;;;;5271679;28;20032;-68
2023/03/30 08:45:04;;;;;;;50.08;47.20;;;9.70;71.30;;;;;;5271537;28;20032;-68
2023/03/30 08:47:40;;;;;;;48.25;45.63;;;9.80;70.60;;;;;;5271585;28;20028;-68
2023/03/30 08:50:26;;;;;;;55.22;52.03;;;9.90;71.80;;;;;;5271573;28;20024;-67
2023/03/30 08:52:57;;;;;;;50.58;47.83;;;9.90;74.80;;;;;;5271477;28;20067;-68
2023/03/30 08:55:55;;;;;;;54.25;51.22;;;9.60;73.30;;;;;;5271403;28;20031;-69
2023/03/30 08:58:42;;;;;;;58.03;54.83;;;10.00;75.00;;;;;;5271432;28;20381;-68
2023/03/30 09:01:34;;;;;;;56.65;53.55;;;9.80;76.80;;;;;;5271212;28;20031;-68
2023/03/30 09:04:43;;;;;;;54.65;51.55;;;10.00;77.00;;;;;;5270719;28;20040;-67
2023/03/30 09:07:36;;;;;;;51.58;48.78;;;10.00;78.50;;;;;;5273295;28;20028;-69
2023/03/30 09:10:12;;;;;;;191.50;177.05;;;10.10;76.20;;;;;;5281256;28;20019;-67
2023/03/30 09:12:47;;;;;;;57.15;54.00;;;10.20;76.10;;;;;;5272093;28;20582;-68
2023/03/30 09:15:39;;;;;;;38.92;36.72;;;10.10;75.90;;;;;;5289446;28;20039;-68
2023/03/30 09:18:10;;;;;;;40.30;38.05;;;10.30;76.40;;;;;;5279736;28;20027;-66
2023/03/30 09:20:42;;;;;;;45.80;42.75;;;10.50;74.60;;;;;;5283599;28;20121;-67
2023/03/30 09:23:16;;;;;;;43.10;40.60;;;10.70;78.50;;;;;;5291984;28;20023;-68
2023/03/30 09:25:52;;;;;;;40.70;38.35;;;10.50;77.70;;;;;;5270951;28;20051;-69
2023/03/30 09:28:47;;;;;;;130.38;117.15;;;10.10;73.80;;;;;;5270743;28;20028;-68
2023/03/30 09:31:40;;;;;;;49.50;46.60;;;10.70;76.50;;;;;;5270176;28;20036;-68
2023/03/30 09:34:21;;;;;;;48.75;46.03;;;10.30;73.10;;;;;;5270702;28;20482;-69
2023/03/30 09:37:10;;;;;;;40.53;38.22;;;10.50;72.00;;;;;;5273301;28;20380;-68
2023/03/30 09:39:41;;;;;;;37.05;34.85;;;10.40;69.60;;;;;;5261026;28;20479;-67
2023/03/30 09:42:21;;;;;;;39.08;36.92;;;10.50;70.90;;;;;;5272339;28;20039;-68
2023/03/30 09:44:57;;;;;;;34.88;32.97;;;10.80;70.90;;;;;;5283076;28;20054;-68
2023/03/30 09:47:36;;;;;;;37.60;35.42;;;10.50;73.10;;;;;;5270482;28;20036;-68
2023/03/30 09:50:16;;;;;;;39.45;37.15;;;10.40;70.70;;;;;;5270559;28;20107;-68
2023/03/30 09:53:02;;;;;;;39.83;37.67;;;10.80;75.40;;;;;;5270519;28;20414;-67
2023/03/30 09:55:35;;;;;;;42.25;39.85;;;10.60;72.00;;;;;;5270378;28;20119;-68
2023/03/30 09:58:25;;;;;;;39.65;37.42;;;10.80;69.80;;;;;;5270198;28;20024;-68
2023/03/30 10:01:12;;;;;;;45.65;43.15;;;11.00;74.50;;;;;;5270362;28;20093;-69
2023/03/30 10:04:02;;;;;;;50.55;47.72;;;10.50;68.40;;;;;;5270087;28;20400;-68
2023/03/30 10:06:54;;;;;;;44.78;42.20;;;11.30;75.70;;;;;;5277051;28;20044;-67
2023/03/30 10:09:25;;;;;;;45.92;43.17;;;11.50;76.60;;;;;;5270800;28;20361;-68
2023/03/30 10:11:57;;;;;;;44.13;41.72;;;11.40;77.50;;;;;;5285129;28;20031;-68
2023/03/30 10:14:31;;;;;;;43.67;41.28;;;11.10;76.00;;;;;;5279731;28;20028;-69
2023/03/30 10:17:03;;;;;;;45.47;42.95;;;11.10;73.50;;;;;;5274434;28;20040;-68
2023/03/30 10:19:35;;;;;;;49.13;46.33;;;11.00;72.40;;;;;;5269834;28;20098;-68
2023/03/30 10:22:21;;;;;;;48.40;45.58;;;11.40;74.20;;;;;;5269727;28;20349;-67
2023/03/30 10:24:55;;;;;;;46.33;43.78;;;11.80;76.70;;;;;;5269549;28;20480;-68
2023/03/30 10:27:33;;;;;;;46.35;43.78;;;10.90;73.70;;;;;;5279794;28;20024;-69
2023/03/30 10:30:11;;;;;;;48.85;46.13;;;11.00;73.00;;;;;;5273094;28;20055;-68
2023/03/30 10:32:45;;;;;;;54.38;51.47;;;10.90;72.50;;;;;;5279415;28;20043;-68
2023/03/30 10:35:26;;;;;;;48.58;45.88;;;11.30;74.40;;;;;;5276442;28;20118;-69
2023/03/30 10:37:59;;;;;;;43.85;41.45;;;11.40;77.50;;;;;;5275895;28;20142;-69
2023/03/30 10:40:36;;;;;;;50.67;47.85;;;11.30;74.60;;;;;;5274113;28;20481;-69
2023/03/30 10:43:14;;;;;;;49.63;46.72;;;11.30;75.70;;;;;;5282215;28;20051;-67
2023/03/30 10:45:55;;;;;;;42.63;40.08;;;11.40;75.70;;;;;;5276353;28;20027;-69
2023/03/30 10:48:46;;;;;;;46.20;43.53;;;11.20;76.00;;;;;;5269388;28;20032;-68
2023/03/30 10:51:27;;;;;;;59.10;55.85;;;11.30;75.70;;;;;;5269367;28;20035;-68
2023/03/30 10:54:09;;;;;;;53.85;50.92;;;11.70;75.50;;;;;;5269083;28;20032;-68
2023/03/30 10:56:59;;;;;;;57.35;54.08;;;11.30;75.30;;;;;;5277585;28;20032;-68
2023/03/30 10:59:39;;;;;;;48.57;45.87;;;11.20;74.40;;;;;;5274809;28;20035;-68
2023/03/30 11:02:28;;;;;;;46.97;44.33;;;11.20;73.20;;;;;;5288779;28;20027;-68
2023/03/30 11:05:11;;;;;;;53.13;50.17;;;11.80;77.40;;;;;;5289850;28;20042;-68
2023/03/30 11:07:44;;;;;;;54.20;51.25;;;11.40;75.30;;;;;;5286380;28;20039;-68
2023/03/30 11:10:15;;;;;;;53.70;50.75;;;11.60;76.00;;;;;;5280870;28;20032;-68
2023/03/30 11:13:25;;;;;;;51.05;48.15;;;11.20;74.30;;;;;;5268541;28;20387;-68
2023/03/30 11:16:06;;;;;;;53.28;50.38;;;11.40;75.00;;;;;;5214988;28;20105;-68
2023/03/30 11:18:47;;;;;;;58.75;55.50;;;12.00;79.40;;;;;;5289719;28;20039;-68
2023/03/30 11:21:57;;;;;;;60.17;56.88;;;11.50;73.90;;;;;;5289680;28;20027;-68
2023/03/30 11:24:28;;;;;;;59.88;56.33;;;11.40;71.10;;;;;;5289300;28;20171;-68
2023/03/30 11:27:17;;;;;;;60.25;57.00;;;11.80;73.30;;;;;;5289200;28;20031;-68
2023/03/30 11:30:23;;;;;;;58.90;55.60;;;11.60;76.30;;;;;;5289458;28;20019;-68
2023/03/30 11:33:04;;;;;;;52.25;49.40;;;11.40;76.30;;;;;;5276917;28;20509;-67
2023/03/30 11:35:45;;;;;;;57.90;54.70;;;11.30;73.70;;;;;;5280574;28;20384;-68
2023/03/30 11:38:42;;;;;;;56.83;53.63;;;11.10;72.40;;;;;;5270434;28;20037;-67
2023/03/30 11:41:15;;;;;;;52.30;49.35;;;11.20;72.60;;;;;;5268007;28;20039;-68
2023/03/30 11:43:46;;;;;;;55.83;52.65;;;11.50;75.00;;;;;;5272191;28;20713;-68
2023/03/30 11:46:29;;;;;;;64.25;60.67;;;11.50;73.50;;;;;;5286876;28;20054;-68
2023/03/30 11:49:38;;;;;;;63.78;60.08;;;11.40;74.10;;;;;;5289170;28;20112;-68
2023/03/30 11:52:38;;;;;;;67.80;64.00;;;12.10;75.20;;;;;;5250644;28;20031;-68
2023/03/30 11:55:39;;;;;;;65.90;62.10;;;11.80;72.90;;;;;;5288008;28;20024;-68
2023/03/30 11:58:26;;;;;;;67.10;63.30;;;12.10;74.00;;;;;;5289124;28;20015;-68
2023/03/30 12:01:31;;;;;;;65.43;61.85;;;11.80;70.00;;;;;;5289101;28;20088;-68
2023/03/30 12:04:10;;;;;;;62.15;58.80;;;12.40;73.40;;;;;;5249675;28;20043;-68
2023/03/30 12:07:01;;;;;;;65.50;61.65;;;12.10;74.00;;;;;;5289143;28;20489;-68
2023/03/30 12:09:41;;;;;;;62.97;59.55;;;12.20;70.40;;;;;;5289235;28;20056;-67
2023/03/30 12:12:14;;;;;;;;;;;12.10;73.30;;;;;;5289573;28;20524;-69
2023/03/30 12:14:54;;;;;;;60.67;57.28;;;12.10;69.00;;;;;;5289026;28;20293;-68
2023/03/30 12:17:41;;;;;;;66.03;62.33;;;11.90;72.00;;;;;;5288939;28;20028;-67
2023/03/30 12:20:38;;;;;;;63.10;59.33;;;11.70;68.00;;;;;;5288940;28;20035;-68
2023/03/30 12:23:32;;;;;;;67.88;63.05;;;11.90;71.40;;;;;;5288870;28;20024;-68
2023/03/30 12:26:32;;;;;;;57.25;53.95;;;12.60;72.00;;;;;;5288838;28;20043;-68
2023/03/30 12:29:04;;;;;;;62.20;58.65;;;12.40;71.80;;;;;;5286213;28;20503;-68
2023/03/30 12:31:52;;;;;;;58.10;54.90;;;11.80;71.60;;;;;;5288493;28;20047;-69
2023/03/30 12:34:26;;;;;;;66.93;63.25;;;11.70;68.10;;;;;;5288628;28;20050;-68
2023/03/30 12:37:22;;;;;;;63.90;60.42;;;11.60;72.10;;;;;;5288694;28;20051;-68
2023/03/30 12:40:21;;;;;;;65.03;61.45;;;12.50;70.70;;;;;;5288739;28;20019;-68
2023/03/30 12:43:22;;;;;;;58.50;55.30;;;12.10;67.00;;;;;;5278373;28;20042;-68
2023/03/30 12:46:07;;;;;;;60.25;56.90;;;11.60;71.10;;;;;;5288578;28;20048;-68
2023/03/30 12:48:53;;;;;;;69.38;65.60;;;12.00;71.80;;;;;;5288700;28;20104;-68
2023/03/30 12:51:58;;;;;;;65.25;61.70;;;11.60;67.90;;;;;;5288532;28;20413;-68
2023/03/30 12:54:56;;;;;;;64.45;60.95;;;11.50;71.20;;;;;;5288460;28;20024;-68
2023/03/30 12:57:46;;;;;;;62.92;59.50;;;12.40;73.10;;;;;;5288678;28;20016;-68
2023/03/30 13:00:46;;;;;;;73.90;69.80;;;11.90;71.60;;;;;;5288278;28;20424;-68
2023/03/30 13:03:38;;;;;;;65.63;61.92;;;12.20;69.40;;;;;;5288219;28;20051;-68
2023/03/30 13:06:20;;;;;;;61.55;58.05;;;12.40;73.60;;;;;;5288540;28;20100;-68
2023/03/30 13:09:07;;;;;;;61.72;58.35;;;12.30;70.60;;;;;;5292233;28;20032;-67
2023/03/30 13:11:48;;;;;;;58.63;55.40;;;11.30;67.70;;;;;;5292221;28;20030;-68
2023/03/30 13:14:32;;;;;;;66.93;62.95;;;11.10;67.20;;;;;;5292457;28;20035;-68
2023/03/30 13:17:06;;;;;;;64.15;60.53;;;12.00;70.30;;;;;;5292152;28;20085;-68
2023/03/30 13:19:37;;;;;;;69.97;66.10;;;11.90;72.50;;;;;;5292320;28;20058;-68
2023/03/30 13:22:10;;;;;;;66.55;62.85;;;12.00;72.90;;;;;;5292200;28;20059;-68